Verifier — MLWN4 — position and weather

sailwx.info

Track history (hours):
 
Tides and Currents Weather Stations Pressure Air Temp Water Temp Dewpoint Dewpoint Depression Visibility Wind Speed Wind Dir Waves Ship Positions

Verifier

Last reported at 2014-Jul-17 13:34 UTC. Time now 2014-Jul-22 13:26 UTC.
Position N 51°29' E 000°57'.

Length 21 m; draft 2 m.

Type: Port tender. MMSI: 235000932.

Date/timePositionNaut miles runAvg speedWind from/ knotsBaromVisibWave heightAir tempDewpointWater temp
2014-Jul-17 13:34N 51°29' E 000°57'5 4.5
2014-Jul-17 12:33N 51°30' E 001°05'1 0.7
2014-Jul-17 11:33N 51°30' E 001°04'1 0.7
2014-Jul-17 10:33N 51°30' E 001°05'1 1.0
2014-Jul-17 09:34N 51°29' E 001°03'  
2014-Jul-08 16:11N 51°30' E 000°46'1117.7
2014-Jul-08 15:34N 51°30' E 001°03'1110.9
2014-Jul-08 14:31N 51°31' E 001°21'0 0.3
2014-Jul-08 13:34N 51°32' E 001°22'0 0.1
2014-Jul-08 12:33N 51°32' E 001°22'0 0.1
2014-Jul-08 11:34N 51°32' E 001°22'0 0.5
2014-Jul-08 10:33N 51°31' E 001°21'1110.9
2014-Jul-08 09:33N 51°29' E 001°04'  
Track history (hours):
 
Tides and Currents Weather Stations Pressure Air Temp Water Temp Dewpoint Dewpoint Depression Visibility Wind Speed Wind Dir Waves Ship Positions

Verifier

Last reported at 2014-Jul-17 13:34 UTC. Time now 2014-Jul-22 13:26 UTC.
Position N 51°29' E 000°57'.

Length 21 m; draft 2 m.

Type: Port tender. MMSI: 235000932.

Date/timePositionNaut miles runAvg speedWind from/ knotsBaromVisibWave heightAir tempDewpointWater temp
2014-Jul-17 13:34N 51°29' E 000°57'5 4.5
2014-Jul-17 12:33N 51°30' E 001°05'1 0.7
2014-Jul-17 11:33N 51°30' E 001°04'1 0.7
2014-Jul-17 10:33N 51°30' E 001°05'1 1.0
2014-Jul-17 09:34N 51°29' E 001°03'  
2014-Jul-08 16:11N 51°30' E 000°46'1117.7
2014-Jul-08 15:34N 51°30' E 001°03'1110.9
2014-Jul-08 14:31N 51°31' E 001°21'0 0.3
2014-Jul-08 13:34N 51°32' E 001°22'0 0.1
2014-Jul-08 12:33N 51°32' E 001°22'0 0.1
2014-Jul-08 11:34N 51°32' E 001°22'0 0.5
2014-Jul-08 10:33N 51°31' E 001°21'1110.9
2014-Jul-08 09:33N 51°29' E 001°04'  

Dump ship's entire track history